sensor_id;sensor_type;location;lat;lon;timestamp;P1;durP1;ratioP1;P2;durP2;ratioP2
5297;SDS011;14738;42.668;23.250;2023-08-21T00:02:01;9.60;;;8.70;;
5297;SDS011;14738;42.668;23.250;2023-08-21T00:04:27;9.10;;;8.30;;
5297;SDS011;14738;42.668;23.250;2023-08-21T00:06:53;11.83;;;8.60;;
5297;SDS011;14738;42.668;23.250;2023-08-21T00:09:18;9.20;;;8.40;;
5297;SDS011;14738;42.668;23.250;2023-08-21T00:11:43;9.80;;;8.80;;
5297;SDS011;14738;42.668;23.250;2023-08-21T00:14:09;10.27;;;9.27;;
5297;SDS011;14738;42.668;23.250;2023-08-21T00:16:34;10.90;;;9.90;;
5297;SDS011;14738;42.668;23.250;2023-08-21T00:18:59;9.37;;;8.53;;
5297;SDS011;14738;42.668;23.250;2023-08-21T00:21:25;9.37;;;8.57;;
5297;SDS011;14738;42.668;23.250;2023-08-21T00:23:50;11.63;;;8.77;;
5297;SDS011;14738;42.668;23.250;2023-08-21T00:26:16;10.83;;;7.93;;
5297;SDS011;14738;42.668;23.250;2023-08-21T00:28:41;9.17;;;8.30;;
5297;SDS011;14738;42.668;23.250;2023-08-21T00:31:06;9.57;;;8.57;;
5297;SDS011;14738;42.668;23.250;2023-08-21T00:33:32;8.17;;;7.47;;
5297;SDS011;14738;42.668;23.250;2023-08-21T00:35:58;8.73;;;8.13;;
5297;SDS011;14738;42.668;23.250;2023-08-21T00:38:23;9.80;;;8.90;;
5297;SDS011;14738;42.668;23.250;2023-08-21T00:40:49;11.70;;;8.67;;
5297;SDS011;14738;42.668;23.250;2023-08-21T00:43:15;9.67;;;8.70;;
5297;SDS011;14738;42.668;23.250;2023-08-21T00:45:41;14.17;;;8.47;;
5297;SDS011;14738;42.668;23.250;2023-08-21T00:48:09;9.03;;;8.33;;
5297;SDS011;14738;42.668;23.250;2023-08-21T00:50:35;12.37;;;8.57;;
5297;SDS011;14738;42.668;23.250;2023-08-21T00:53:01;9.83;;;9.03;;
5297;SDS011;14738;42.668;23.250;2023-08-21T00:55:28;10.87;;;8.60;;
5297;SDS011;14738;42.668;23.250;2023-08-21T00:57:54;11.33;;;9.20;;
5297;SDS011;14738;42.668;23.250;2023-08-21T01:00:19;9.60;;;8.67;;
5297;SDS011;14738;42.668;23.250;2023-08-21T01:02:47;9.33;;;8.57;;
5297;SDS011;14738;42.668;23.250;2023-08-21T01:05:12;9.13;;;8.40;;
5297;SDS011;14738;42.668;23.250;2023-08-21T01:07:49;9.17;;;8.27;;
5297;SDS011;14738;42.668;23.250;2023-08-21T01:10:33;8.53;;;7.73;;
5297;SDS011;14738;42.668;23.250;2023-08-21T01:15:58;9.83;;;8.53;;
5297;SDS011;14738;42.668;23.250;2023-08-21T01:18:24;9.90;;;9.00;;
5297;SDS011;14738;42.668;23.250;2023-08-21T01:20:52;10.23;;;9.00;;
5297;SDS011;14738;42.668;23.250;2023-08-21T01:26:02;10.87;;;8.70;;
5297;SDS011;14738;42.668;23.250;2023-08-21T01:28:27;9.93;;;8.93;;
5297;SDS011;14738;42.668;23.250;2023-08-21T01:31:17;9.50;;;8.57;;
5297;SDS011;14738;42.668;23.250;2023-08-21T01:33:47;10.50;;;9.60;;
5297;SDS011;14738;42.668;23.250;2023-08-21T01:36:18;9.80;;;9.00;;
5297;SDS011;14738;42.668;23.250;2023-08-21T01:38:45;9.73;;;8.83;;
5297;SDS011;14738;42.668;23.250;2023-08-21T01:41:12;9.77;;;8.97;;
5297;SDS011;14738;42.668;23.250;2023-08-21T01:43:37;8.90;;;8.20;;
5297;SDS011;14738;42.668;23.250;2023-08-21T01:46:03;12.63;;;8.33;;
5297;SDS011;14738;42.668;23.250;2023-08-21T01:48:28;9.70;;;8.90;;
5297;SDS011;14738;42.668;23.250;2023-08-21T01:50:54;9.70;;;8.90;;
5297;SDS011;14738;42.668;23.250;2023-08-21T01:53:19;9.77;;;8.97;;
5297;SDS011;14738;42.668;23.250;2023-08-21T01:55:45;9.20;;;8.50;;
5297;SDS011;14738;42.668;23.250;2023-08-21T01:58:10;8.67;;;7.97;;
5297;SDS011;14738;42.668;23.250;2023-08-21T02:00:35;9.90;;;9.10;;
5297;SDS011;14738;42.668;23.250;2023-08-21T02:03:01;9.50;;;8.60;;
5297;SDS011;14738;42.668;23.250;2023-08-21T02:05:26;10.37;;;8.00;;
5297;SDS011;14738;42.668;23.250;2023-08-21T02:07:52;9.20;;;8.50;;
5297;SDS011;14738;42.668;23.250;2023-08-21T02:10:17;10.27;;;8.90;;
5297;SDS011;14738;42.668;23.250;2023-08-21T02:12:43;10.00;;;9.03;;
5297;SDS011;14738;42.668;23.250;2023-08-21T02:15:08;9.03;;;8.20;;
5297;SDS011;14738;42.668;23.250;2023-08-21T02:17:35;15.30;;;8.87;;
5297;SDS011;14738;42.668;23.250;2023-08-21T02:20:00;9.60;;;8.70;;
5297;SDS011;14738;42.668;23.250;2023-08-21T02:22:26;8.87;;;8.17;;
5297;SDS011;14738;42.668;23.250;2023-08-21T02:24:51;10.10;;;9.27;;
5297;SDS011;14738;42.668;23.250;2023-08-21T02:27:16;10.47;;;9.53;;
5297;SDS011;14738;42.668;23.250;2023-08-21T02:29:42;9.50;;;8.60;;
5297;SDS011;14738;42.668;23.250;2023-08-21T02:32:07;10.67;;;8.70;;
5297;SDS011;14738;42.668;23.250;2023-08-21T02:34:32;9.63;;;8.83;;
5297;SDS011;14738;42.668;23.250;2023-08-21T02:36:58;10.23;;;9.33;;
5297;SDS011;14738;42.668;23.250;2023-08-21T02:39:23;10.00;;;9.10;;
5297;SDS011;14738;42.668;23.250;2023-08-21T02:41:49;10.33;;;9.47;;
5297;SDS011;14738;42.668;23.250;2023-08-21T02:44:14;9.40;;;8.70;;
5297;SDS011;14738;42.668;23.250;2023-08-21T02:46:39;9.70;;;8.90;;
5297;SDS011;14738;42.668;23.250;2023-08-21T02:49:05;10.57;;;9.43;;
5297;SDS011;14738;42.668;23.250;2023-08-21T02:51:30;11.67;;;9.63;;
5297;SDS011;14738;42.668;23.250;2023-08-21T02:53:56;9.43;;;8.63;;
5297;SDS011;14738;42.668;23.250;2023-08-21T02:56:21;10.47;;;9.37;;
5297;SDS011;14738;42.668;23.250;2023-08-21T02:58:47;10.27;;;9.40;;
5297;SDS011;14738;42.668;23.250;2023-08-21T03:01:12;10.97;;;9.00;;
5297;SDS011;14738;42.668;23.250;2023-08-21T03:03:37;9.93;;;9.07;;
5297;SDS011;14738;42.668;23.250;2023-08-21T03:06:03;9.60;;;8.80;;
5297;SDS011;14738;42.668;23.250;2023-08-21T03:08:28;8.60;;;7.67;;
5297;SDS011;14738;42.668;23.250;2023-08-21T03:10:53;10.20;;;9.40;;
5297;SDS011;14738;42.668;23.250;2023-08-21T03:13:19;9.43;;;8.60;;
5297;SDS011;14738;42.668;23.250;2023-08-21T03:15:44;9.23;;;8.43;;
5297;SDS011;14738;42.668;23.250;2023-08-21T03:18:10;10.00;;;9.20;;
5297;SDS011;14738;42.668;23.250;2023-08-21T03:20:35;9.37;;;8.67;;
5297;SDS011;14738;42.668;23.250;2023-08-21T03:23:00;9.87;;;9.00;;
5297;SDS011;14738;42.668;23.250;2023-08-21T03:25:27;10.83;;;9.77;;
5297;SDS011;14738;42.668;23.250;2023-08-21T03:27:52;9.97;;;9.07;;
5297;SDS011;14738;42.668;23.250;2023-08-21T03:30:18;10.17;;;9.27;;
5297;SDS011;14738;42.668;23.250;2023-08-21T03:32:43;10.33;;;9.33;;
5297;SDS011;14738;42.668;23.250;2023-08-21T03:35:09;10.87;;;9.60;;
5297;SDS011;14738;42.668;23.250;2023-08-21T03:37:34;10.83;;;9.17;;
5297;SDS011;14738;42.668;23.250;2023-08-21T03:39:59;10.90;;;9.97;;
5297;SDS011;14738;42.668;23.250;2023-08-21T03:42:25;9.77;;;8.77;;
5297;SDS011;14738;42.668;23.250;2023-08-21T03:44:50;10.57;;;9.67;;
5297;SDS011;14738;42.668;23.250;2023-08-21T03:47:16;12.70;;;9.93;;
5297;SDS011;14738;42.668;23.250;2023-08-21T03:49:41;9.77;;;8.93;;
5297;SDS011;14738;42.668;23.250;2023-08-21T03:52:07;10.73;;;9.07;;
5297;SDS011;14738;42.668;23.250;2023-08-21T03:54:32;9.73;;;8.93;;
5297;SDS011;14738;42.668;23.250;2023-08-21T03:56:58;9.37;;;8.40;;
5297;SDS011;14738;42.668;23.250;2023-08-21T03:59:23;12.53;;;10.17;;
5297;SDS011;14738;42.668;23.250;2023-08-21T04:01:52;14.93;;;9.03;;
5297;SDS011;14738;42.668;23.250;2023-08-21T04:04:17;9.67;;;8.77;;
5297;SDS011;14738;42.668;23.250;2023-08-21T04:06:43;10.37;;;8.80;;
5297;SDS011;14738;42.668;23.250;2023-08-21T04:09:08;10.20;;;9.07;;
5297;SDS011;14738;42.668;23.250;2023-08-21T04:11:34;9.97;;;8.97;;
5297;SDS011;14738;42.668;23.250;2023-08-21T04:14:00;15.27;;;9.10;;
5297;SDS011;14738;42.668;23.250;2023-08-21T04:16:26;9.40;;;7.93;;
5297;SDS011;14738;42.668;23.250;2023-08-21T04:18:53;8.97;;;8.27;;
5297;SDS011;14738;42.668;23.250;2023-08-21T04:21:18;9.13;;;8.33;;
5297;SDS011;14738;42.668;23.250;2023-08-21T04:23:44;8.63;;;7.80;;
5297;SDS011;14738;42.668;23.250;2023-08-21T04:26:10;12.70;;;8.33;;
5297;SDS011;14738;42.668;23.250;2023-08-21T04:28:35;7.77;;;7.13;;
5297;SDS011;14738;42.668;23.250;2023-08-21T04:31:03;8.20;;;7.60;;
5297;SDS011;14738;42.668;23.250;2023-08-21T04:33:30;8.70;;;8.10;;
5297;SDS011;14738;42.668;23.250;2023-08-21T04:35:55;8.67;;;7.97;;
5297;SDS011;14738;42.668;23.250;2023-08-21T04:38:21;9.13;;;7.93;;
5297;SDS011;14738;42.668;23.250;2023-08-21T04:40:46;9.00;;;8.20;;
5297;SDS011;14738;42.668;23.250;2023-08-21T04:43:12;9.43;;;8.23;;
5297;SDS011;14738;42.668;23.250;2023-08-21T04:45:37;9.90;;;8.90;;
5297;SDS011;14738;42.668;23.250;2023-08-21T04:48:04;8.87;;;8.10;;
5297;SDS011;14738;42.668;23.250;2023-08-21T04:50:30;9.27;;;8.57;;
5297;SDS011;14738;42.668;23.250;2023-08-21T04:52:55;14.37;;;7.43;;
5297;SDS011;14738;42.668;23.250;2023-08-21T04:55:20;10.03;;;7.13;;
5297;SDS011;14738;42.668;23.250;2023-08-21T04:57:46;9.40;;;7.60;;
5297;SDS011;14738;42.668;23.250;2023-08-21T05:00:12;66.17;;;10.20;;
5297;SDS011;14738;42.668;23.250;2023-08-21T05:02:37;11.20;;;7.37;;
5297;SDS011;14738;42.668;23.250;2023-08-21T05:05:04;9.43;;;7.10;;
5297;SDS011;14738;42.668;23.250;2023-08-21T05:07:30;6.67;;;6.20;;
5297;SDS011;14738;42.668;23.250;2023-08-21T05:09:58;8.77;;;8.07;;
5297;SDS011;14738;42.668;23.250;2023-08-21T05:12:24;9.73;;;8.83;;
5297;SDS011;14738;42.668;23.250;2023-08-21T05:14:51;19.53;;;9.00;;
5297;SDS011;14738;42.668;23.250;2023-08-21T05:17:16;16.07;;;9.40;;
5297;SDS011;14738;42.668;23.250;2023-08-21T05:19:41;18.13;;;9.30;;
5297;SDS011;14738;42.668;23.250;2023-08-21T05:22:07;13.43;;;8.90;;
5297;SDS011;14738;42.668;23.250;2023-08-21T05:24:32;16.83;;;9.63;;
5297;SDS011;14738;42.668;23.250;2023-08-21T05:26:57;13.37;;;10.00;;
5297;SDS011;14738;42.668;23.250;2023-08-21T05:29:23;12.50;;;11.20;;
5297;SDS011;14738;42.668;23.250;2023-08-21T05:31:48;18.40;;;11.30;;
5297;SDS011;14738;42.668;23.250;2023-08-21T05:34:14;15.83;;;10.03;;
5297;SDS011;14738;42.668;23.250;2023-08-21T05:36:39;14.53;;;10.73;;
5297;SDS011;14738;42.668;23.250;2023-08-21T05:39:05;16.83;;;9.70;;
5297;SDS011;14738;42.668;23.250;2023-08-21T05:41:31;15.03;;;10.77;;
5297;SDS011;14738;42.668;23.250;2023-08-21T05:43:57;17.90;;;9.80;;
5297;SDS011;14738;42.668;23.250;2023-08-21T05:46:22;16.70;;;9.90;;
5297;SDS011;14738;42.668;23.250;2023-08-21T05:48:47;19.07;;;11.20;;
5297;SDS011;14738;42.668;23.250;2023-08-21T05:51:13;10.97;;;9.87;;
5297;SDS011;14738;42.668;23.250;2023-08-21T05:53:38;12.80;;;11.60;;
5297;SDS011;14738;42.668;23.250;2023-08-21T05:56:04;12.30;;;9.93;;
5297;SDS011;14738;42.668;23.250;2023-08-21T05:58:29;10.40;;;8.50;;
5297;SDS011;14738;42.668;23.250;2023-08-21T06:00:56;9.47;;;8.57;;
5297;SDS011;14738;42.668;23.250;2023-08-21T06:03:22;22.17;;;11.17;;
5297;SDS011;14738;42.668;23.250;2023-08-21T06:05:47;18.77;;;9.17;;
5297;SDS011;14738;42.668;23.250;2023-08-21T06:08:13;12.03;;;9.43;;
5297;SDS011;14738;42.668;23.250;2023-08-21T06:10:38;8.87;;;8.10;;
5297;SDS011;14738;42.668;23.250;2023-08-21T06:13:03;9.10;;;8.33;;
5297;SDS011;14738;42.668;23.250;2023-08-21T06:15:29;19.70;;;8.87;;
5297;SDS011;14738;42.668;23.250;2023-08-21T06:17:54;9.33;;;7.37;;
5297;SDS011;14738;42.668;23.250;2023-08-21T06:20:20;19.70;;;9.13;;
5297;SDS011;14738;42.668;23.250;2023-08-21T06:22:45;14.43;;;8.70;;
5297;SDS011;14738;42.668;23.250;2023-08-21T06:25:11;12.50;;;7.70;;
5297;SDS011;14738;42.668;23.250;2023-08-21T06:27:37;15.03;;;8.23;;
5297;SDS011;14738;42.668;23.250;2023-08-21T06:30:03;9.13;;;8.10;;
5297;SDS011;14738;42.668;23.250;2023-08-21T06:32:29;17.80;;;8.20;;
5297;SDS011;14738;42.668;23.250;2023-08-21T06:34:54;9.27;;;8.20;;
5297;SDS011;14738;42.668;23.250;2023-08-21T06:37:19;8.60;;;7.70;;
5297;SDS011;14738;42.668;23.250;2023-08-21T06:39:45;15.27;;;8.80;;
5297;SDS011;14738;42.668;23.250;2023-08-21T06:42:10;9.60;;;8.77;;
5297;SDS011;14738;42.668;23.250;2023-08-21T06:44:35;17.00;;;8.80;;
5297;SDS011;14738;42.668;23.250;2023-08-21T06:47:01;15.27;;;7.53;;
5297;SDS011;14738;42.668;23.250;2023-08-21T06:49:27;10.13;;;7.90;;
5297;SDS011;14738;42.668;23.250;2023-08-21T06:51:52;7.77;;;6.97;;
5297;SDS011;14738;42.668;23.250;2023-08-21T06:54:17;8.03;;;7.33;;
5297;SDS011;14738;42.668;23.250;2023-08-21T06:56:43;7.97;;;7.17;;
5297;SDS011;14738;42.668;23.250;2023-08-21T06:59:09;9.43;;;6.90;;
5297;SDS011;14738;42.668;23.250;2023-08-21T07:01:34;7.17;;;6.40;;
5297;SDS011;14738;42.668;23.250;2023-08-21T07:04:00;6.60;;;6.00;;
5297;SDS011;14738;42.668;23.250;2023-08-21T07:06:27;12.13;;;6.63;;
5297;SDS011;14738;42.668;23.250;2023-08-21T07:08:54;6.93;;;6.33;;
5297;SDS011;14738;42.668;23.250;2023-08-21T07:11:19;10.17;;;6.40;;
5297;SDS011;14738;42.668;23.250;2023-08-21T07:13:44;9.33;;;6.10;;
5297;SDS011;14738;42.668;23.250;2023-08-21T07:16:10;7.67;;;6.80;;
5297;SDS011;14738;42.668;23.250;2023-08-21T07:18:35;15.73;;;6.40;;
5297;SDS011;14738;42.668;23.250;2023-08-21T07:21:01;8.63;;;7.27;;
5297;SDS011;14738;42.668;23.250;2023-08-21T07:23:29;8.83;;;6.40;;
5297;SDS011;14738;42.668;23.250;2023-08-21T07:25:55;9.03;;;6.37;;
5297;SDS011;14738;42.668;23.250;2023-08-21T07:28:22;7.97;;;5.80;;
5297;SDS011;14738;42.668;23.250;2023-08-21T07:30:47;6.73;;;6.33;;
5297;SDS011;14738;42.668;23.250;2023-08-21T07:33:13;9.33;;;6.30;;
5297;SDS011;14738;42.668;23.250;2023-08-21T07:35:38;6.70;;;6.17;;
5297;SDS011;14738;42.668;23.250;2023-08-21T07:38:04;12.00;;;6.40;;
5297;SDS011;14738;42.668;23.250;2023-08-21T07:40:29;6.63;;;6.13;;
5297;SDS011;14738;42.668;23.250;2023-08-21T07:42:55;9.20;;;6.10;;
5297;SDS011;14738;42.668;23.250;2023-08-21T07:45:20;7.60;;;6.90;;
5297;SDS011;14738;42.668;23.250;2023-08-21T07:47:46;7.20;;;6.63;;
5297;SDS011;14738;42.668;23.250;2023-08-21T07:50:11;6.20;;;5.80;;
5297;SDS011;14738;42.668;23.250;2023-08-21T07:52:39;9.37;;;6.90;;
5297;SDS011;14738;42.668;23.250;2023-08-21T07:55:05;7.33;;;6.83;;
5297;SDS011;14738;42.668;23.250;2023-08-21T07:57:31;7.70;;;7.10;;
5297;SDS011;14738;42.668;23.250;2023-08-21T07:59:57;9.33;;;6.50;;
5297;SDS011;14738;42.668;23.250;2023-08-21T08:02:23;7.00;;;6.40;;
5297;SDS011;14738;42.668;23.250;2023-08-21T08:04:48;7.57;;;6.87;;
5297;SDS011;14738;42.668;23.250;2023-08-21T08:07:14;7.47;;;6.73;;
5297;SDS011;14738;42.668;23.250;2023-08-21T08:09:39;8.70;;;6.70;;
5297;SDS011;14738;42.668;23.250;2023-08-21T08:12:05;9.80;;;6.90;;
5297;SDS011;14738;42.668;23.250;2023-08-21T08:14:30;7.97;;;7.30;;
5297;SDS011;14738;42.668;23.250;2023-08-21T08:16:56;7.20;;;6.50;;
5297;SDS011;14738;42.668;23.250;2023-08-21T08:19:21;8.47;;;6.63;;
5297;SDS011;14738;42.668;23.250;2023-08-21T08:21:46;7.87;;;7.37;;
5297;SDS011;14738;42.668;23.250;2023-08-21T08:24:12;8.50;;;7.80;;
5297;SDS011;14738;42.668;23.250;2023-08-21T08:26:37;7.03;;;6.53;;
5297;SDS011;14738;42.668;23.250;2023-08-21T08:29:03;9.80;;;7.30;;
5297;SDS011;14738;42.668;23.250;2023-08-21T08:31:30;8.60;;;7.73;;
5297;SDS011;14738;42.668;23.250;2023-08-21T08:33:55;7.53;;;7.03;;
5297;SDS011;14738;42.668;23.250;2023-08-21T08:36:20;7.80;;;7.10;;
5297;SDS011;14738;42.668;23.250;2023-08-21T08:38:46;8.30;;;7.50;;
5297;SDS011;14738;42.668;23.250;2023-08-21T08:41:14;8.17;;;7.47;;
5297;SDS011;14738;42.668;23.250;2023-08-21T08:44:00;7.70;;;7.10;;
5297;SDS011;14738;42.668;23.250;2023-08-21T08:46:27;8.10;;;7.50;;
5297;SDS011;14738;42.668;23.250;2023-08-21T08:48:54;9.80;;;7.90;;
5297;SDS011;14738;42.668;23.250;2023-08-21T08:51:21;7.50;;;7.00;;
5297;SDS011;14738;42.668;23.250;2023-08-21T08:53:50;7.73;;;7.13;;
5297;SDS011;14738;42.668;23.250;2023-08-21T08:56:15;12.87;;;7.17;;
5297;SDS011;14738;42.668;23.250;2023-08-21T08:58:41;9.63;;;7.30;;
5297;SDS011;14738;42.668;23.250;2023-08-21T09:01:07;7.00;;;6.50;;
5297;SDS011;14738;42.668;23.250;2023-08-21T09:03:35;6.83;;;6.40;;
5297;SDS011;14738;42.668;23.250;2023-08-21T09:06:01;6.90;;;6.40;;
5297;SDS011;14738;42.668;23.250;2023-08-21T09:08:27;6.83;;;5.70;;
5297;SDS011;14738;42.668;23.250;2023-08-21T09:10:53;8.23;;;7.50;;
5297;SDS011;14738;42.668;23.250;2023-08-21T09:13:19;7.60;;;6.90;;
5297;SDS011;14738;42.668;23.250;2023-08-21T09:15:53;7.37;;;6.80;;
5297;SDS011;14738;42.668;23.250;2023-08-21T09:18:23;7.60;;;7.10;;
5297;SDS011;14738;42.668;23.250;2023-08-21T09:20:48;10.40;;;7.00;;
5297;SDS011;14738;42.668;23.250;2023-08-21T09:23:14;6.97;;;6.57;;
5297;SDS011;14738;42.668;23.250;2023-08-21T09:25:41;8.03;;;6.47;;
5297;SDS011;14738;42.668;23.250;2023-08-21T09:28:11;8.10;;;7.33;;
5297;SDS011;14738;42.668;23.250;2023-08-21T09:30:46;7.03;;;6.33;;
5297;SDS011;14738;42.668;23.250;2023-08-21T09:33:13;6.73;;;6.23;;
5297;SDS011;14738;42.668;23.250;2023-08-21T09:35:41;7.50;;;6.70;;
5297;SDS011;14738;42.668;23.250;2023-08-21T09:38:07;7.10;;;6.03;;
5297;SDS011;14738;42.668;23.250;2023-08-21T09:40:33;6.47;;;5.97;;
5297;SDS011;14738;42.668;23.250;2023-08-21T09:42:59;8.50;;;6.80;;
5297;SDS011;14738;42.668;23.250;2023-08-21T09:45:25;9.10;;;6.67;;
5297;SDS011;14738;42.668;23.250;2023-08-21T09:47:52;7.00;;;6.40;;
5297;SDS011;14738;42.668;23.250;2023-08-21T09:50:18;6.83;;;6.33;;
5297;SDS011;14738;42.668;23.250;2023-08-21T09:52:44;7.50;;;6.83;;
5297;SDS011;14738;42.668;23.250;2023-08-21T09:55:10;7.93;;;6.53;;
5297;SDS011;14738;42.668;23.250;2023-08-21T09:57:38;7.00;;;6.30;;
5297;SDS011;14738;42.668;23.250;2023-08-21T10:00:05;6.53;;;6.10;;
5297;SDS011;14738;42.668;23.250;2023-08-21T10:02:40;7.40;;;6.80;;
5297;SDS011;14738;42.668;23.250;2023-08-21T10:05:11;6.57;;;6.10;;
5297;SDS011;14738;42.668;23.250;2023-08-21T10:07:37;10.20;;;6.30;;
5297;SDS011;14738;42.668;23.250;2023-08-21T10:10:04;14.47;;;6.53;;
5297;SDS011;14738;42.668;23.250;2023-08-21T10:12:30;10.63;;;6.70;;
5297;SDS011;14738;42.668;23.250;2023-08-21T10:14:55;8.00;;;6.20;;
5297;SDS011;14738;42.668;23.250;2023-08-21T10:17:20;6.30;;;5.90;;
5297;SDS011;14738;42.668;23.250;2023-08-21T10:19:55;6.37;;;5.93;;
5297;SDS011;14738;42.668;23.250;2023-08-21T10:22:36;6.10;;;5.50;;
5297;SDS011;14738;42.668;23.250;2023-08-21T10:25:18;6.67;;;6.13;;
5297;SDS011;14738;42.668;23.250;2023-08-21T10:27:51;6.50;;;5.90;;
5297;SDS011;14738;42.668;23.250;2023-08-21T10:30:20;11.60;;;6.60;;
5297;SDS011;14738;42.668;23.250;2023-08-21T10:32:47;6.07;;;5.67;;
5297;SDS011;14738;42.668;23.250;2023-08-21T10:35:14;6.77;;;6.23;;
5297;SDS011;14738;42.668;23.250;2023-08-21T10:43:41;8.53;;;6.93;;
5297;SDS011;14738;42.668;23.250;2023-08-21T10:46:09;6.83;;;6.13;;
5297;SDS011;14738;42.668;23.250;2023-08-21T10:48:36;11.20;;;6.70;;
5297;SDS011;14738;42.668;23.250;2023-08-21T10:51:02;6.50;;;5.93;;
5297;SDS011;14738;42.668;23.250;2023-08-21T10:53:30;6.40;;;5.90;;
5297;SDS011;14738;42.668;23.250;2023-08-21T10:55:56;14.47;;;5.73;;
5297;SDS011;14738;42.668;23.250;2023-08-21T10:58:22;9.07;;;6.83;;
5297;SDS011;14738;42.668;23.250;2023-08-21T11:00:58;6.90;;;6.20;;
5297;SDS011;14738;42.668;23.250;2023-08-21T11:03:23;6.90;;;6.50;;
5297;SDS011;14738;42.668;23.250;2023-08-21T11:06:02;7.60;;;6.10;;
5297;SDS011;14738;42.668;23.250;2023-08-21T11:08:28;7.13;;;6.53;;
5297;SDS011;14738;42.668;23.250;2023-08-21T11:10:54;6.63;;;6.03;;
5297;SDS011;14738;42.668;23.250;2023-08-21T11:13:19;8.40;;;6.37;;
5297;SDS011;14738;42.668;23.250;2023-08-21T11:15:49;6.50;;;6.00;;
5297;SDS011;14738;42.668;23.250;2023-08-21T11:18:22;7.23;;;6.37;;
5297;SDS011;14738;42.668;23.250;2023-08-21T11:20:51;6.70;;;6.13;;
5297;SDS011;14738;42.668;23.250;2023-08-21T11:23:31;6.23;;;5.80;;
5297;SDS011;14738;42.668;23.250;2023-08-21T11:25:57;6.70;;;5.90;;
5297;SDS011;14738;42.668;23.250;2023-08-21T11:28:22;6.90;;;6.33;;
5297;SDS011;14738;42.668;23.250;2023-08-21T11:30:48;6.30;;;5.70;;
5297;SDS011;14738;42.668;23.250;2023-08-21T11:33:13;6.10;;;5.47;;
5297;SDS011;14738;42.668;23.250;2023-08-21T11:35:39;6.63;;;5.33;;
5297;SDS011;14738;42.668;23.250;2023-08-21T11:38:05;6.00;;;5.57;;
5297;SDS011;14738;42.668;23.250;2023-08-21T11:40:34;5.93;;;5.60;;
5297;SDS011;14738;42.668;23.250;2023-08-21T11:43:00;8.33;;;5.67;;
5297;SDS011;14738;42.668;23.250;2023-08-21T11:45:27;6.30;;;5.80;;
5297;SDS011;14738;42.668;23.250;2023-08-21T11:47:55;6.47;;;5.80;;
5297;SDS011;14738;42.668;23.250;2023-08-21T11:50:21;7.90;;;5.87;;
5297;SDS011;14738;42.668;23.250;2023-08-21T11:52:47;8.20;;;6.30;;
5297;SDS011;14738;42.668;23.250;2023-08-21T11:55:16;6.57;;;5.63;;
5297;SDS011;14738;42.668;23.250;2023-08-21T11:57:49;5.83;;;5.33;;
5297;SDS011;14738;42.668;23.250;2023-08-21T12:00:15;6.90;;;6.40;;
5297;SDS011;14738;42.668;23.250;2023-08-21T12:02:53;6.60;;;5.90;;
5297;SDS011;14738;42.668;23.250;2023-08-21T12:05:24;6.80;;;6.30;;
5297;SDS011;14738;42.668;23.250;2023-08-21T12:07:49;5.97;;;5.43;;
5297;SDS011;14738;42.668;23.250;2023-08-21T12:10:21;6.20;;;5.60;;
5297;SDS011;14738;42.668;23.250;2023-08-21T12:12:48;6.60;;;5.40;;
5297;SDS011;14738;42.668;23.250;2023-08-21T12:15:13;6.57;;;6.10;;
5297;SDS011;14738;42.668;23.250;2023-08-21T12:17:38;6.27;;;5.53;;
5297;SDS011;14738;42.668;23.250;2023-08-21T12:20:04;6.40;;;5.90;;
5297;SDS011;14738;42.668;23.250;2023-08-21T12:22:35;5.93;;;5.53;;
5297;SDS011;14738;42.668;23.250;2023-08-21T12:25:01;7.03;;;6.33;;
5297;SDS011;14738;42.668;23.250;2023-08-21T12:27:26;9.20;;;6.80;;
5297;SDS011;14738;42.668;23.250;2023-08-21T12:29:52;6.43;;;6.03;;
5297;SDS011;14738;42.668;23.250;2023-08-21T12:32:17;6.93;;;6.13;;
5297;SDS011;14738;42.668;23.250;2023-08-21T12:34:42;6.87;;;6.30;;
5297;SDS011;14738;42.668;23.250;2023-08-21T12:37:08;7.20;;;6.37;;
5297;SDS011;14738;42.668;23.250;2023-08-21T12:39:33;5.97;;;5.60;;
5297;SDS011;14738;42.668;23.250;2023-08-21T12:41:58;6.90;;;6.40;;
5297;SDS011;14738;42.668;23.250;2023-08-21T12:44:24;5.97;;;5.47;;
5297;SDS011;14738;42.668;23.250;2023-08-21T12:46:49;6.53;;;6.03;;
5297;SDS011;14738;42.668;23.250;2023-08-21T12:49:16;10.73;;;6.30;;
5297;SDS011;14738;42.668;23.250;2023-08-21T12:51:41;9.20;;;5.97;;
5297;SDS011;14738;42.668;23.250;2023-08-21T12:54:07;8.47;;;5.77;;
5297;SDS011;14738;42.668;23.250;2023-08-21T12:56:34;7.10;;;6.50;;
5297;SDS011;14738;42.668;23.250;2023-08-21T12:58:59;6.00;;;5.53;;
5297;SDS011;14738;42.668;23.250;2023-08-21T13:01:25;6.70;;;6.20;;
5297;SDS011;14738;42.668;23.250;2023-08-21T13:03:51;7.10;;;6.50;;
5297;SDS011;14738;42.668;23.250;2023-08-21T13:06:16;6.43;;;6.03;;
5297;SDS011;14738;42.668;23.250;2023-08-21T13:08:42;7.27;;;6.60;;
5297;SDS011;14738;42.668;23.250;2023-08-21T13:11:08;6.30;;;5.90;;
5297;SDS011;14738;42.668;23.250;2023-08-21T13:13:34;6.53;;;5.93;;
5297;SDS011;14738;42.668;23.250;2023-08-21T13:16:00;8.77;;;6.17;;
5297;SDS011;14738;42.668;23.250;2023-08-21T13:18:26;6.33;;;5.93;;
5297;SDS011;14738;42.668;23.250;2023-08-21T13:20:51;5.10;;;4.80;;
5297;SDS011;14738;42.668;23.250;2023-08-21T13:23:17;8.17;;;7.50;;
5297;SDS011;14738;42.668;23.250;2023-08-21T13:25:42;9.30;;;6.37;;
5297;SDS011;14738;42.668;23.250;2023-08-21T13:28:07;6.77;;;6.10;;
5297;SDS011;14738;42.668;23.250;2023-08-21T13:30:33;6.13;;;5.63;;
5297;SDS011;14738;42.668;23.250;2023-08-21T13:32:58;6.87;;;5.90;;
5297;SDS011;14738;42.668;23.250;2023-08-21T13:35:24;5.33;;;5.00;;
5297;SDS011;14738;42.668;23.250;2023-08-21T13:37:49;6.93;;;5.90;;
5297;SDS011;14738;42.668;23.250;2023-08-21T13:40:15;6.27;;;5.87;;
5297;SDS011;14738;42.668;23.250;2023-08-21T13:42:41;6.30;;;5.63;;
5297;SDS011;14738;42.668;23.250;2023-08-21T13:45:12;6.10;;;5.70;;
5297;SDS011;14738;42.668;23.250;2023-08-21T13:47:41;5.80;;;5.50;;
5297;SDS011;14738;42.668;23.250;2023-08-21T13:50:09;6.60;;;6.10;;
5297;SDS011;14738;42.668;23.250;2023-08-21T13:52:35;6.00;;;5.50;;
5297;SDS011;14738;42.668;23.250;2023-08-21T13:55:02;5.87;;;5.33;;
5297;SDS011;14738;42.668;23.250;2023-08-21T13:57:28;5.17;;;4.63;;
5297;SDS011;14738;42.668;23.250;2023-08-21T13:59:53;6.20;;;5.60;;
5297;SDS011;14738;42.668;23.250;2023-08-21T14:02:19;8.47;;;5.77;;
5297;SDS011;14738;42.668;23.250;2023-08-21T14:04:45;8.97;;;6.40;;
5297;SDS011;14738;42.668;23.250;2023-08-21T14:07:11;8.67;;;5.50;;
5297;SDS011;14738;42.668;23.250;2023-08-21T14:09:37;6.13;;;5.53;;
5297;SDS011;14738;42.668;23.250;2023-08-21T14:12:03;6.20;;;5.80;;
5297;SDS011;14738;42.668;23.250;2023-08-21T14:14:28;6.20;;;5.60;;
5297;SDS011;14738;42.668;23.250;2023-08-21T14:16:54;5.73;;;5.30;;
5297;SDS011;14738;42.668;23.250;2023-08-21T14:19:19;7.57;;;6.30;;
5297;SDS011;14738;42.668;23.250;2023-08-21T14:21:45;6.17;;;5.57;;
5297;SDS011;14738;42.668;23.250;2023-08-21T14:24:10;8.00;;;5.90;;
5297;SDS011;14738;42.668;23.250;2023-08-21T14:26:35;9.53;;;6.40;;
5297;SDS011;14738;42.668;23.250;2023-08-21T14:29:01;6.57;;;5.97;;
5297;SDS011;14738;42.668;23.250;2023-08-21T14:31:26;6.20;;;5.70;;
5297;SDS011;14738;42.668;23.250;2023-08-21T14:33:52;6.13;;;5.60;;
5297;SDS011;14738;42.668;23.250;2023-08-21T14:36:18;8.63;;;5.80;;
5297;SDS011;14738;42.668;23.250;2023-08-21T14:38:44;6.03;;;5.53;;
5297;SDS011;14738;42.668;23.250;2023-08-21T14:41:09;6.47;;;5.90;;
5297;SDS011;14738;42.668;23.250;2023-08-21T14:43:35;6.97;;;6.27;;
5297;SDS011;14738;42.668;23.250;2023-08-21T14:46:00;7.47;;;5.43;;
5297;SDS011;14738;42.668;23.250;2023-08-21T14:48:26;6.13;;;5.53;;
5297;SDS011;14738;42.668;23.250;2023-08-21T14:50:51;6.73;;;6.20;;